Time;durP1;ratioP1;P1;durP2;ratioP2;P2;SDS_P1;SDS_P2;PMS_P1;PMS_P2;Temp;Humidity;BMP_temperature;BMP_pressure;BME280_temperature;BME280_humidity;BME280_pressure;Samples;Min_cycle;Max_cycle;Signal;HPM_P1;HPM_P2
2022/02/04 00:23:24;;;;;;;34.33;18.05;;;;;;;5.97;97.76;101069.56;5061294;28;20044;-78
2022/02/04 00:28:13;;;;;;;32.08;16.23;;;;;;;5.87;97.81;101078.91;5066690;28;20037;-78
2022/02/04 00:30:44;;;;;;;31.83;16.90;;;;;;;5.91;97.74;101075.97;5047490;28;20116;-78
2022/02/04 00:33:11;;;;;;;30.48;16.13;;;;;;;5.92;97.68;101064.75;5043572;28;20029;-78
2022/02/04 00:40:39;;;;;;;33.55;17.23;;;;;;;5.94;97.28;101068.03;5047704;28;20033;-78
2022/02/04 00:43:09;;;;;;;31.40;15.80;;;;;;;5.82;97.59;101063.81;5056736;28;20025;-78
2022/02/04 00:45:44;;;;;;;33.05;16.33;;;;;;;5.86;97.97;101054.94;5048600;28;20039;-78
2022/02/04 00:48:25;;;;;;;30.17;16.50;;;;;;;5.91;97.76;101060.53;5052159;28;20040;-77
2022/02/04 00:53:40;;;;;;;38.78;18.63;;;;;;;5.99;97.96;101049.66;5070960;28;20051;-78
2022/02/04 01:26:02;;;;;;;27.75;15.25;;;;;;;5.98;95.94;101032.59;5077751;28;20036;-78
2022/02/04 01:28:28;;;;;;;28.42;14.85;;;;;;;5.89;96.62;101033.28;5053747;28;20290;-78
2022/02/04 01:30:54;;;;;;;28.90;15.70;;;;;;;5.94;96.05;101034.56;5037970;28;20301;-78
2022/02/04 01:33:20;;;;;;;31.52;14.30;;;;;;;5.88;96.04;101031.63;5044089;28;20032;-78
2022/02/04 01:35:46;;;;;;;27.40;14.18;;;;;;;5.86;96.34;101029.22;5036616;28;20039;-79
2022/02/04 01:38:11;;;;;;;26.92;14.18;;;;;;;5.95;96.28;101036.25;5053898;28;20043;-78
2022/02/04 01:40:37;;;;;;;24.00;13.55;;;;;;;5.92;95.68;101021.00;5036883;28;20040;-78
2022/02/04 01:43:03;;;;;;;24.77;14.00;;;;;;;5.96;95.91;101019.84;5072794;28;20039;-78
2022/02/04 01:45:28;;;;;;;24.67;13.57;;;;;;;5.88;95.64;101014.47;5050036;28;20039;-78
2022/02/04 01:47:56;;;;;;;26.55;13.93;;;;;;;6.00;96.03;101013.50;5052215;28;20024;-78
2022/02/04 01:50:28;;;;;;;25.55;12.82;;;;;;;6.02;95.82;101006.47;5051171;28;20066;-78
2022/02/04 01:52:56;;;;;;;23.90;12.73;;;;;;;5.95;95.27;101010.50;5039972;28;20028;-78
2022/02/04 01:55:22;;;;;;;22.48;11.98;;;;;;;5.97;95.28;101016.34;5053481;28;20130;-78
2022/02/04 01:57:47;;;;;;;23.88;12.57;;;;;;;5.95;95.31;101013.09;5035920;28;20045;-78
2022/02/04 02:00:14;;;;;;;21.27;11.90;;;;;;;5.88;95.99;101003.31;5036088;28;20037;-79
2022/02/04 02:02:40;;;;;;;23.40;12.32;;;;;;;6.01;95.54;100998.91;5052732;28;20124;-78
2022/02/04 02:05:07;;;;;;;21.35;12.38;;;;;;;5.91;95.42;100998.75;5069362;28;20028;-78
2022/02/04 02:07:40;;;;;;;23.25;13.65;;;;;;;5.88;95.54;100987.88;5034947;28;20033;-78
2022/02/04 02:10:10;;;;;;;23.60;12.73;;;;;;;5.97;95.47;100988.03;5066915;28;20033;-78
2022/02/04 02:12:46;;;;;;;22.00;11.10;;;;;;;5.87;95.53;100994.00;5026566;28;20060;-78
2022/02/04 02:34:56;;;;;;;21.40;10.55;;;;;;;6.06;93.30;101001.91;5069211;28;20036;-78
2022/02/04 02:44:58;;;;;;;16.92;9.60;;;;;;;6.06;93.65;100999.34;5043676;28;20025;-78
2022/02/04 02:55:41;;;;;;;22.02;11.00;;;;;;;6.04;93.87;100976.28;5043753;28;20044;-78
2022/02/04 02:58:14;;;;;;;23.65;11.57;;;;;;;5.99;94.21;100987.88;5041695;28;20029;-78
2022/02/04 03:03:13;;;;;;;19.27;10.32;;;;;;;5.95;93.76;100989.03;5045294;28;20051;-78
2022/02/04 03:05:39;;;;;;;21.92;12.55;;;;;;;6.04;93.60;100983.19;5035031;28;20032;-78
2022/02/04 03:08:05;;;;;;;20.98;10.93;;;;;;;5.95;93.58;100960.72;5045534;28;20083;-78
2022/02/04 03:10:31;;;;;;;21.13;11.02;;;;;;;6.01;93.15;100961.09;5033991;28;20032;-78
2022/02/04 03:12:57;;;;;;;18.85;10.98;;;;;;;6.06;93.09;100962.50;5043276;28;20054;-78
2022/02/04 03:15:22;;;;;;;22.33;11.25;;;;;;;6.11;92.70;100950.06;5027137;28;20067;-78
2022/02/04 03:17:58;;;;;;;22.63;12.00;;;;;;;6.03;92.98;100954.06;5043540;28;20032;-78
2022/02/04 03:20:23;;;;;;;22.50;12.40;;;;;;;6.17;92.67;100954.72;5030010;28;20034;-78
2022/02/04 03:22:50;;;;;;;20.73;11.65;;;;;;;6.17;92.45;100958.09;5045775;28;20044;-77
2022/02/04 03:25:17;;;;;;;20.05;11.13;;;;;;;6.09;92.66;100950.19;5044520;28;20066;-78
2022/02/04 03:27:50;;;;;;;21.60;10.85;;;;;;;6.13;92.23;100948.19;5052008;28;20376;-78
2022/02/04 03:30:21;;;;;;;23.73;11.40;;;;;;;6.01;92.75;100940.50;5037203;28;20029;-78
2022/02/04 03:32:52;;;;;;;21.70;11.40;;;;;;;6.08;92.83;100948.53;5031459;28;20068;-77
2022/02/04 03:35:21;;;;;;;20.33;10.48;;;;;;;6.02;92.96;100949.84;5067045;28;20040;-78
2022/02/04 03:37:48;;;;;;;21.25;10.77;;;;;;;6.07;92.97;100943.53;5036811;28;20467;-77
2022/02/04 03:40:14;;;;;;;19.90;10.13;;;;;;;6.08;92.86;100943.38;5053433;28;20032;-78
2022/02/04 03:42:40;;;;;;;19.38;10.73;;;;;;;6.14;92.33;100944.66;5063681;28;20039;-78
2022/02/04 03:45:06;;;;;;;21.90;10.90;;;;;;;6.07;92.47;100946.91;5049459;28;20028;-78
2022/02/04 03:47:31;;;;;;;22.17;10.73;;;;;;;6.01;92.47;100947.41;5034931;28;20087;-79
2022/02/04 03:49:56;;;;;;;20.02;11.05;;;;;;;6.01;92.65;100943.09;5034401;28;20087;-78
2022/02/04 03:52:23;;;;;;;21.63;10.15;;;;;;;6.22;91.59;100937.16;5061991;28;20053;-78
2022/02/04 03:54:49;;;;;;;20.65;9.63;;;;;;;6.09;91.74;100937.31;5065149;28;20040;-78
2022/02/04 03:57:14;;;;;;;15.55;8.85;;;;;;;6.05;91.71;100941.09;5035659;28;20198;-79
2022/02/04 03:59:40;;;;;;;18.98;9.15;;;;;;;6.04;92.08;100945.38;5049452;28;20032;-78
2022/02/04 04:02:05;;;;;;;18.42;9.73;;;;;;;6.02;92.04;100936.97;5034304;28;20032;-78
2022/02/04 04:04:33;;;;;;;16.90;9.40;;;;;;;6.09;92.00;100933.94;5043915;28;20044;-78
2022/02/04 04:06:59;;;;;;;20.23;9.55;;;;;;;6.10;91.67;100927.81;5047633;28;20036;-78
2022/02/04 04:09:25;;;;;;;16.25;9.40;;;;;;;6.00;91.67;100932.91;5052669;28;20029;-78
2022/02/04 04:11:52;;;;;;;15.65;8.88;;;;;;;5.98;92.56;100937.34;5042061;28;20036;-78
2022/02/04 04:14:18;;;;;;;16.38;8.80;;;;;;;6.29;91.09;100935.72;5033827;28;20123;-78
2022/02/04 04:16:44;;;;;;;16.40;8.27;;;;;;;6.14;90.93;100930.03;5034350;28;20249;-78
2022/02/04 04:19:10;;;;;;;18.88;9.55;;;;;;;6.12;91.52;100926.78;5041475;28;20020;-78
2022/02/04 04:21:35;;;;;;;33.70;13.25;;;;;;;6.24;91.14;100927.53;5068672;28;20059;-78
2022/02/04 04:24:01;;;;;;;53.58;20.02;;;;;;;6.18;90.76;100931.44;5069810;28;20032;-78
2022/02/04 04:26:27;;;;;;;30.05;15.02;;;;;;;6.13;90.75;100930.16;5051470;28;20538;-78
2022/02/04 04:28:52;;;;;;;26.83;12.77;;;;;;;6.09;91.62;100934.75;5055320;28;20152;-78
2022/02/04 04:31:19;;;;;;;15.50;8.77;;;;;;;6.19;91.17;100940.78;5052741;28;20501;-79
2022/02/04 04:33:45;;;;;;;14.90;8.35;;;;;;;6.25;91.07;100947.19;5042218;28;20024;-78
2022/02/04 04:36:10;;;;;;;12.38;7.85;;;;;;;6.24;90.81;100936.06;5070289;28;20082;-79
2022/02/04 04:38:45;;;;;;;13.93;6.60;;;;;;;6.19;90.63;100938.19;5052282;28;20032;-79
2022/02/04 05:30:19;;;;;;;14.40;5.93;;;;;;;6.33;88.58;100902.78;5060821;28;20028;-67
2022/02/04 05:32:45;;;;;;;11.75;6.03;;;;;;;6.25;89.30;100900.84;5063835;28;20088;-68
2022/02/04 05:35:11;;;;;;;13.35;6.20;;;;;;;6.35;88.64;100896.56;5063991;28;20131;-67
2022/02/04 05:37:41;;;;;;;12.63;5.97;;;;;;;6.29;89.10;100907.38;5046270;28;20036;-67
2022/02/04 05:40:12;;;;;;;9.68;5.63;;;;;;;6.43;88.19;100908.81;5064053;28;20028;-68
2022/02/04 05:42:43;;;;;;;10.30;5.88;;;;;;;6.41;88.36;100908.94;5061910;28;20034;-68
2022/02/04 05:45:31;;;;;;;12.25;6.28;;;;;;;6.37;88.63;100902.41;5059820;28;20133;-68
2022/02/04 05:48:02;;;;;;;10.88;6.25;;;;;;;6.31;89.39;100907.25;5045111;28;21034;-68
2022/02/04 05:50:37;;;;;;;11.18;6.80;;;;;;;6.19;89.92;100903.91;5061837;28;20033;-68
2022/02/04 05:58:27;;;;;;;11.43;5.90;;;;;;;6.34;89.12;100892.34;5060634;28;20087;-68
2022/02/04 06:01:12;;;;;;;15.50;6.47;;;;;;;6.38;88.99;100895.50;5044260;28;20122;-69
2022/02/04 06:24:38;;;;;;;10.52;5.18;;;;;;;6.36;89.11;100893.03;5061671;28;20055;-68
2022/02/04 06:27:04;;;;;;;11.15;5.50;;;;;;;6.27;89.22;100893.78;5062318;28;20044;-68
2022/02/04 06:29:32;;;;;;;12.15;5.72;;;;;;;6.21;89.98;100899.44;5065664;28;20044;-68
2022/02/04 06:31:57;;;;;;;10.73;5.40;;;;;;;6.31;89.55;100896.94;5051373;28;20067;-68
2022/02/04 06:34:23;;;;;;;10.18;5.22;;;;;;;6.34;89.35;100894.13;5064610;28;20533;-67
2022/02/04 06:36:49;;;;;;;10.00;5.18;;;;;;;6.35;89.16;100888.84;5068563;28;20029;-67
2022/02/04 06:39:14;;;;;;;8.00;4.38;;;;;;;6.37;89.52;100889.53;5066740;28;20033;-68
2022/02/04 06:41:40;;;;;;;8.95;5.07;;;;;;;6.27;89.61;100896.38;5048629;28;20036;-68
2022/02/04 06:44:06;;;;;;;8.82;4.63;;;;;;;6.31;90.33;100890.06;5065680;28;20482;-68
2022/02/04 06:46:31;;;;;;;9.73;4.70;;;;;;;6.42;89.79;100891.72;5050068;28;20090;-68
2022/02/04 06:48:57;;;;;;;9.13;4.82;;;;;;;6.40;89.33;100885.88;5064993;28;20032;-68
2022/02/04 06:51:23;;;;;;;10.00;3.95;;;;;;;6.38;89.82;100888.56;5064373;28;20490;-67
2022/02/04 06:53:49;;;;;;;7.80;4.30;;;;;;;6.48;89.86;100885.25;5047510;28;20116;-68
2022/02/04 06:56:15;;;;;;;8.63;3.97;;;;;;;6.45;89.73;100899.22;5048178;28;20060;-68
2022/02/04 06:58:40;;;;;;;9.88;4.68;;;;;;;6.34;90.05;100894.94;5063200;28;20090;-68
2022/02/04 07:01:06;;;;;;;10.07;4.90;;;;;;;6.41;90.75;100885.75;5047840;28;20032;-68
2022/02/04 07:03:33;;;;;;;8.93;4.63;;;;;;;6.41;90.60;100896.06;5045549;28;20043;-68
2022/02/04 07:06:00;;;;;;;9.32;4.53;;;;;;;6.53;90.78;100888.25;5041976;28;20040;-68
2022/02/04 07:08:33;;;;;;;12.32;5.28;;;;;;;6.45;91.12;100886.31;5046658;28;20032;-68
2022/02/04 07:11:15;;;;;;;10.38;5.53;;;;;;;6.33;91.69;100895.88;5062287;28;20025;-68
2022/02/04 07:14:06;;;;;;;9.32;5.00;;;;;;;6.24;92.86;100887.16;5041320;28;20194;-68
2022/02/04 07:16:38;;;;;;;11.60;5.72;;;;;;;6.28;92.76;100889.47;5062015;28;20044;-68
2022/02/04 07:21:48;;;;;;;10.32;5.95;;;;;;;6.31;93.02;100886.63;5061055;28;20127;-68
2022/02/04 07:24:14;;;;;;;10.68;6.80;;;;;;;6.35;92.86;100891.44;5042491;28;20036;-67
2022/02/04 07:26:40;;;;;;;13.05;7.40;;;;;;;6.31;93.01;100896.94;5043858;28;20036;-68
2022/02/04 07:29:05;;;;;;;11.10;6.50;;;;;;;6.32;93.61;100890.84;5060789;28;20040;-68
2022/02/04 07:31:35;;;;;;;14.70;6.95;;;;;;;6.31;93.15;100890.06;5049079;28;20041;-68
2022/02/04 07:34:21;;;;;;;14.40;7.20;;;;;;;6.35;93.25;100891.44;5060969;28;20039;-68
2022/02/04 07:42:01;;;;;;;16.38;8.15;;;;;;;6.31;93.50;100887.47;5064858;28;20040;-68
2022/02/04 07:44:27;;;;;;;12.15;7.03;;;;;;;6.34;93.58;100897.50;5044357;28;20201;-68
2022/02/04 07:46:53;;;;;;;13.27;7.20;;;;;;;6.35;93.70;100886.28;5059767;28;20036;-68
2022/02/04 07:49:19;;;;;;;23.08;10.90;;;;;;;6.38;93.35;100882.63;5059816;28;20402;-69
2022/02/04 07:51:44;;;;;;;17.25;7.28;;;;;;;6.40;93.11;100878.16;5044484;28;20036;-68
2022/02/04 07:54:10;;;;;;;14.30;7.88;;;;;;;6.34;93.23;100866.59;5061410;28;20034;-67
2022/02/04 07:56:36;;;;;;;17.20;6.85;;;;;;;6.34;93.49;100856.28;5065868;28;20032;-68
2022/02/04 07:59:08;;;;;;;18.08;8.05;;;;;;;6.39;93.26;100855.94;5062154;28;20482;-68
2022/02/04 08:01:33;;;;;;;13.85;7.00;;;;;;;6.48;92.85;100847.44;5061605;28;20050;-68
2022/02/04 08:04:12;;;;;;;14.98;6.75;;;;;;;6.49;92.26;100849.06;5042434;28;20029;-67
2022/02/04 08:06:43;;;;;;;10.65;6.05;;;;;;;6.58;92.17;100850.88;5056732;28;20190;-68
2022/02/04 08:09:20;;;;;;;13.38;5.45;;;;;;;6.53;91.58;100847.84;5060452;28;20142;-68
2022/02/04 08:28:19;;;;;;;9.50;5.00;;;;;;;6.68;90.75;100848.31;5040352;28;20413;-66
2022/02/04 08:36:26;;;;;;;10.00;4.95;;;;;;;6.88;91.23;100843.25;5043592;28;20518;-66
2022/02/04 08:47:13;;;;;;;11.48;5.15;;;;;;;6.80;90.47;100847.31;5060227;28;20036;-66
2022/02/04 08:54:45;;;;;;;12.15;5.30;;;;;;;6.77;92.48;100836.44;5056876;28;20044;-66
2022/02/04 09:02:42;;;;;;;10.57;6.28;;;;;;;6.88;93.03;100840.69;5061355;28;20032;-66
2022/02/04 09:05:14;;;;;;;11.93;6.55;;;;;;;6.80;93.93;100824.09;5041730;28;20608;-66
2022/02/04 09:07:54;;;;;;;;;;;;;;;6.79;93.37;100826.81;5060457;28;20040;-66
2022/02/04 09:10:23;;;;;;;11.57;6.40;;;;;;;6.84;93.94;100827.25;5062719;28;20744;-66
2022/02/04 09:21:09;;;;;;;10.68;5.28;;;;;;;6.72;95.45;100815.38;5067923;28;20029;-66
2022/02/04 09:23:30;;;;;;;11.20;5.93;;;;;;;6.82;95.32;100817.06;5063399;28;20110;-66
2022/02/04 09:25:58;;;;;;;9.43;5.35;;;;;;;6.71;95.92;100814.56;5064490;28;20041;-66
2022/02/04 09:28:24;;;;;;;11.75;6.15;;;;;;;6.82;95.05;100803.34;5042302;28;20029;-66
2022/02/04 09:30:50;;;;;;;10.95;5.72;;;;;;;6.74;95.27;100806.59;5060034;28;20098;-66
2022/02/04 09:33:15;;;;;;;11.20;5.63;;;;;;;6.83;94.37;100789.50;5042839;28;20040;-66
2022/02/04 09:35:41;;;;;;;11.10;5.70;;;;;;;7.02;93.19;100786.97;5063126;28;20064;-66
2022/02/04 09:38:08;;;;;;;8.48;5.05;;;;;;;7.10;91.48;100767.44;5046157;28;20056;-66
2022/02/04 09:40:34;;;;;;;9.18;5.60;;;;;;;7.03;92.00;100769.75;5026582;28;20418;-66
2022/02/04 09:43:02;;;;;;;9.82;5.38;;;;;;;7.18;91.39;100762.44;5065591;28;20028;-66
2022/02/04 09:45:29;;;;;;;10.10;5.00;;;;;;;7.12;90.97;100762.97;5065945;28;20409;-66
2022/02/04 09:48:01;;;;;;;9.63;5.00;;;;;;;7.14;91.00;100772.22;5065337;28;20349;-66
2022/02/04 09:50:29;;;;;;;8.20;4.55;;;;;;;7.21;90.07;100777.63;5065686;28;20036;-66
2022/02/04 10:07:19;;;;;;;5.97;3.33;;;;;;;7.23;90.04;100765.41;5062368;28;20386;-66
2022/02/04 10:13:32;;;;;;;7.35;3.97;;;;;;;7.16;90.36;100754.03;5044671;28;21763;-66
2022/02/04 10:16:35;;;;;;;8.10;3.03;;;;;;;7.27;90.05;100753.06;5044119;28;20040;-66
2022/02/04 10:19:19;;;;;;;6.07;3.30;;;;;;;7.33;89.30;100752.53;5062139;28;20028;-66
2022/02/04 10:21:55;;;;;;;5.10;3.20;;;;;;;7.31;89.65;100751.84;5066179;28;20481;-66
2022/02/04 10:24:24;;;;;;;8.45;3.85;;;;;;;7.18;90.66;100746.97;5060812;28;20044;-67
2022/02/04 10:27:11;;;;;;;5.53;3.20;;;;;;;7.20;90.65;100739.91;5061834;28;20043;-66
2022/02/04 10:29:42;;;;;;;5.75;3.53;;;;;;;7.23;90.31;100737.03;5058864;28;20038;-66
2022/02/04 10:32:08;;;;;;;4.97;3.40;;;;;;;7.26;90.53;100730.81;5060465;28;20449;-67
2022/02/04 10:34:37;;;;;;;5.75;3.20;;;;;;;7.36;89.97;100721.28;5042398;28;20561;-66
2022/02/04 10:37:15;;;;;;;12.02;3.55;;;;;;;7.49;89.34;100716.66;5043987;28;20028;-66
2022/02/04 10:42:20;;;;;;;5.75;3.10;;;;;;;7.71;88.66;100718.13;5044032;28;20115;-66
2022/02/04 10:45:09;;;;;;;6.38;3.63;;;;;;;7.70;88.68;100708.75;5029546;28;20593;-67
2022/02/04 10:51:31;;;;;;;5.68;3.35;;;;;;;7.72;88.57;100712.03;5062526;28;20525;-66
2022/02/04 11:01:33;;;;;;;8.25;3.88;;;;;;;7.92;87.24;100691.31;5060047;28;20711;-66
2022/02/04 11:03:53;;;;;;;7.73;3.80;;;;;;;7.83;87.29;100681.84;5041366;28;20131;-66
2022/02/04 11:06:47;;;;;;;5.70;3.22;;;;;;;7.93;86.41;100680.84;5043521;28;20996;-66
2022/02/04 11:36:06;;;;;;;3.53;2.08;;;;;;;7.86;82.49;100619.59;5059997;28;20032;-66
2022/02/04 11:52:57;;;;;;;2.65;1.33;;;;;;;8.05;80.35;100578.19;5052617;28;20123;-66
2022/02/04 11:55:13;;;;;;;4.32;1.92;;;;;;;8.14;79.81;100574.72;5054741;28;20130;-66
2022/02/04 11:57:56;;;;;;;5.95;1.50;;;;;;;8.08;80.36;100565.00;5046692;28;20123;-66
2022/02/04 12:00:24;;;;;;;;;;;;;;;8.09;79.98;100558.84;5047370;28;20024;-66
2022/02/04 12:02:55;;;;;;;3.05;1.75;;;;;;;8.07;79.75;100565.94;5042339;28;20427;-66
2022/02/04 12:05:20;;;;;;;3.13;1.65;;;;;;;8.19;79.46;100545.88;5039741;28;20044;-66
2022/02/04 12:08:03;;;;;;;8.85;2.13;;;;;;;8.17;79.28;100561.53;5042676;28;20490;-65
2022/02/04 12:10:30;;;;;;;4.13;2.40;;;;;;;8.04;79.66;100540.38;5062682;28;20047;-66
2022/02/04 12:12:57;;;;;;;4.82;2.20;;;;;;;8.08;79.13;100540.91;5060609;28;20137;-66
2022/02/04 12:15:31;;;;;;;4.60;1.92;;;;;;;8.12;79.51;100531.94;5063959;28;20036;-66
2022/02/04 12:18:06;;;;;;;6.85;2.20;;;;;;;8.11;79.38;100528.53;5063336;28;20035;-66
2022/02/04 12:20:47;;;;;;;4.72;2.83;;;;;;;7.90;80.01;100521.06;5061049;28;20503;-66
2022/02/04 12:26:12;;;;;;;6.53;2.42;;;;;;;7.96;80.13;100510.13;5059693;28;20094;-66
2022/02/04 12:29:06;;;;;;;4.40;2.15;;;;;;;7.89;80.08;100501.38;5040070;28;20394;-66
2022/02/04 12:31:31;;;;;;;3.38;2.00;;;;;;;7.95;79.99;100502.56;5041979;28;20037;-65
2022/02/04 12:34:11;;;;;;;7.15;2.15;;;;;;;8.07;80.25;100506.53;5061322;28;20111;-66
2022/02/04 12:36:46;;;;;;;4.00;2.30;;;;;;;7.99;79.96;100496.13;5043036;28;20040;-66
2022/02/04 12:39:23;;;;;;;4.57;2.40;;;;;;;8.04;79.51;100493.91;5060240;28;20028;-66
2022/02/04 12:41:54;;;;;;;3.83;2.13;;;;;;;7.98;79.30;100484.16;5063873;28;20079;-67
2022/02/04 12:44:22;;;;;;;5.50;2.78;;;;;;;7.97;79.20;100493.69;5050957;28;20048;-66
2022/02/04 12:47:00;;;;;;;5.70;2.90;;;;;;;7.96;79.42;100493.84;5062069;28;20028;-66
2022/02/04 12:49:28;;;;;;;4.93;2.90;;;;;;;7.89;79.68;100480.72;5064226;28;20032;-66
2022/02/04 12:54:36;;;;;;;4.40;2.47;;;;;;;7.81;80.05;100478.03;5059521;28;20028;-66
2022/02/04 12:57:28;;;;;;;4.53;2.83;;;;;;;7.90;80.01;100466.03;5062453;28;20123;-66
2022/02/04 13:00:09;;;;;;;4.18;2.78;;;;;;;7.98;79.98;100466.91;5045067;28;20424;-66
2022/02/04 13:07:57;;;;;;;7.30;3.45;;;;;;;8.03;77.87;100439.84;5043446;28;20039;-66
2022/02/04 13:10:25;;;;;;;6.10;3.65;;;;;;;8.06;78.70;100432.63;5063632;28;20035;-66
2022/02/04 13:12:54;;;;;;;7.97;3.58;;;;;;;8.14;78.12;100435.25;5046133;28;20066;-66
2022/02/04 13:15:21;;;;;;;7.60;2.88;;;;;;;8.21;78.26;100437.25;5045037;28;20032;-66
2022/02/04 13:17:47;;;;;;;7.45;3.63;;;;;;;8.26;77.30;100417.75;5062908;28;20040;-65
2022/02/04 13:20:16;;;;;;;5.78;3.38;;;;;;;8.31;77.60;100433.63;5067720;28;20017;-66
2022/02/04 13:22:42;;;;;;;9.68;3.40;;;;;;;8.34;77.10;100417.84;5065773;28;20123;-65
2022/02/04 13:25:15;;;;;;;7.22;3.40;;;;;;;8.38;76.72;100408.81;5047104;28;20032;-66
2022/02/04 13:28:14;;;;;;;4.00;2.92;;;;;;;8.40;76.18;100406.09;5061058;28;20490;-66
2022/02/04 13:31:01;;;;;;;8.60;2.72;;;;;;;8.36;76.50;100402.16;5045548;28;20040;-65
2022/02/04 13:33:41;;;;;;;6.55;3.60;;;;;;;8.39;75.85;100407.84;5061776;28;20486;-68
2022/02/04 13:36:28;;;;;;;5.03;3.05;;;;;;;8.41;76.70;100401.72;5062720;28;20498;-65
2022/02/04 13:58:48;;;;;;;6.38;2.90;;;;;;;8.33;76.40;100341.28;5044203;28;20035;-66
2022/02/04 14:01:20;;;;;;;7.30;2.65;;;;;;;8.25;76.73;100354.16;5062677;28;20465;-66
2022/02/04 14:03:50;;;;;;;4.97;2.63;;;;;;;8.30;76.52;100339.00;5061104;28;20303;-66
2022/02/04 14:06:20;;;;;;;6.50;3.10;;;;;;;8.34;75.97;100340.34;5061992;28;20043;-66
2022/02/04 14:08:52;;;;;;;4.03;2.47;;;;;;;8.41;75.37;100324.22;5030339;28;20277;-66
2022/02/04 14:11:30;;;;;;;7.93;2.60;;;;;;;8.44;75.91;100319.59;5029150;28;20051;-66
2022/02/04 14:13:58;;;;;;;5.30;2.67;;;;;;;8.34;75.99;100303.31;5059230;28;20121;-66
2022/02/04 14:16:25;;;;;;;10.63;2.47;;;;;;;8.24;76.38;100310.38;5045112;28;20039;-66
2022/02/04 14:18:51;;;;;;;5.47;2.78;;;;;;;8.10;76.71;100307.41;5047958;28;20123;-66
2022/02/04 14:21:17;;;;;;;6.00;2.60;;;;;;;8.15;76.86;100302.56;5065047;28;20143;-66
2022/02/04 14:23:49;;;;;;;6.97;2.90;;;;;;;8.20;76.73;100315.03;5045441;28;20412;-67
2022/02/04 14:26:31;;;;;;;5.68;2.17;;;;;;;8.09;76.57;100318.69;5047913;28;20028;-66
2022/02/04 14:29:05;;;;;;;9.10;3.60;;;;;;;8.14;76.73;100310.50;5064391;28;20042;-66
2022/02/04 14:31:44;;;;;;;9.18;2.72;;;;;;;8.05;76.64;100304.47;5061910;28;20047;-66
2022/02/04 14:37:17;;;;;;;7.25;2.28;;;;;;;8.11;75.30;100303.84;5062388;28;20043;-66
2022/02/04 15:01:26;;;;;;;8.82;2.88;;;;;;;7.99;77.49;100263.75;5061898;28;20043;-66
2022/02/04 15:04:01;;;;;;;7.90;2.88;;;;;;;7.88;78.87;100269.16;5059893;28;20590;-66
2022/02/04 15:06:34;;;;;;;14.35;2.42;;;;;;;7.83;78.91;100268.81;5060571;28;20040;-66
2022/02/04 15:08:59;;;;;;;;;;;;;;;7.83;79.58;100264.44;5042349;28;20036;-65
2022/02/04 15:11:33;;;;;;;6.50;2.42;;;;;;;7.86;79.96;100260.78;5047395;28;19920;-66
2022/02/04 15:14:02;;;;;;;7.15;2.60;;;;;;;7.73;81.22;100272.28;5058436;28;20035;-66
2022/02/04 15:16:28;;;;;;;9.75;3.58;;;;;;;7.67;83.25;100272.88;5047097;28;20159;-66
2022/02/04 15:18:54;;;;;;;11.02;4.60;;;;;;;7.51;84.59;100278.72;5064076;28;20383;-66
2022/02/04 15:21:21;;;;;;;6.90;3.25;;;;;;;7.46;85.50;100275.78;5059360;28;20486;-67
2022/02/04 15:23:50;;;;;;;5.45;3.30;;;;;;;7.33;86.68;100289.06;5057650;28;20569;-66
2022/02/04 15:26:18;;;;;;;11.60;3.20;;;;;;;7.34;87.63;100269.22;5060227;28;20029;-67
2022/02/04 15:28:48;;;;;;;8.93;3.55;;;;;;;7.24;88.84;100279.63;5023870;28;20043;-66
2022/02/04 15:31:30;;;;;;;7.40;2.97;;;;;;;7.10;89.61;100270.63;5060228;28;20033;-67
2022/02/04 15:33:56;;;;;;;7.53;2.40;;;;;;;7.13;90.49;100275.47;5044629;28;20041;-66
2022/02/04 15:36:29;;;;;;;4.03;2.33;;;;;;;6.94;92.00;100280.75;5069861;28;20031;-67
2022/02/04 15:38:56;;;;;;;3.95;2.58;;;;;;;6.94;92.00;100280.75;5041875;28;20039;-66
2022/02/04 15:41:24;;;;;;;8.15;2.47;;;;;;;6.77;93.02;100278.00;5060976;28;20037;-67
2022/02/04 15:43:55;;;;;;;8.40;3.03;;;;;;;6.78;93.41;100274.47;5060208;28;20048;-67
2022/02/04 15:46:45;;;;;;;7.72;2.80;;;;;;;6.76;93.52;100268.66;5042675;28;20036;-67
2022/02/04 15:51:58;;;;;;;7.65;2.70;;;;;;;6.82;94.09;100265.50;5056810;28;20032;-67
2022/02/04 16:04:47;;;;;;;7.15;2.83;;;;;;;6.72;95.11;100295.66;5059929;28;20123;-66
2022/02/04 16:07:18;;;;;;;7.97;2.72;;;;;;;6.73;95.56;100286.97;5058710;28;20068;-66
2022/02/04 16:09:50;;;;;;;8.43;2.65;;;;;;;6.74;96.13;100300.66;5059136;28;20326;-66
2022/02/04 16:12:23;;;;;;;7.20;2.42;;;;;;;6.71;96.22;100299.19;5028839;28;20033;-67
2022/02/04 16:15:03;;;;;;;6.15;2.35;;;;;;;6.67;96.86;100330.53;5040521;28;20040;-67
2022/02/04 16:17:54;;;;;;;5.00;2.42;;;;;;;6.70;97.38;100337.97;5060518;28;20036;-67
2022/02/04 16:20:25;;;;;;;6.75;2.72;;;;;;;6.74;98.16;100393.44;5058055;28;20115;-66
2022/02/04 16:23:05;;;;;;;8.95;3.90;;;;;;;6.35;95.02;100425.25;5037631;28;20658;-67
2022/02/04 16:30:41;;;;;;;3.55;0.77;;;;;;;5.62;92.61;100471.91;5063229;28;20381;-67
2022/02/04 16:33:07;;;;;;;0.75;0.45;;;;;;;5.31;91.13;100499.41;5060901;28;20048;-67
2022/02/04 16:35:33;;;;;;;0.82;0.45;;;;;;;5.12;90.74;100518.13;5044847;28;20050;-66
2022/02/04 16:38:05;;;;;;;5.45;0.57;;;;;;;4.81;89.77;100532.69;5057414;28;20119;-67
2022/02/04 16:40:33;;;;;;;2.65;0.63;;;;;;;4.72;90.34;100543.72;5055161;28;20028;-66
2022/02/04 16:43:00;;;;;;;0.65;0.45;;;;;;;4.56;90.69;100567.22;5055043;28;20044;-66
2022/02/04 16:45:26;;;;;;;1.90;0.60;;;;;;;4.43;91.19;100580.25;5057707;28;20483;-66
2022/02/04 16:47:52;;;;;;;0.85;0.80;;;;;;;4.39;91.55;100604.50;5059954;28;20043;-66
2022/02/04 16:50:21;;;;;;;1.58;0.90;;;;;;;4.38;91.72;100615.72;5058033;28;20056;-66
2022/02/04 16:52:53;;;;;;;1.25;0.85;;;;;;;4.35;91.32;100627.06;5061044;28;20028;-66
2022/02/04 16:55:20;;;;;;;3.00;1.10;;;;;;;4.42;91.26;100638.47;5041863;28;20090;-66
2022/02/04 16:57:47;;;;;;;3.45;0.93;;;;;;;4.35;91.01;100649.34;5057673;28;20024;-66
2022/02/04 17:00:22;;;;;;;1.17;1.08;;;;;;;4.30;89.98;100662.53;5042024;28;20029;-66
2022/02/04 17:02:50;;;;;;;1.10;1.00;;;;;;;4.28;90.47;100679.81;5027269;28;20590;-65
2022/02/04 17:05:18;;;;;;;2.10;1.20;;;;;;;4.33;91.10;100680.25;5059329;28;20036;-65
2022/02/04 17:07:52;;;;;;;1.85;1.00;;;;;;;4.28;91.34;100692.66;5045284;28;20052;-66
2022/02/04 17:10:26;;;;;;;1.73;1.27;;;;;;;4.28;91.62;100706.28;5056521;28;20399;-66
2022/02/04 17:12:58;;;;;;;2.88;1.20;;;;;;;4.27;90.43;100716.69;5058208;28;20048;-65
2022/02/04 17:15:25;;;;;;;2.25;1.40;;;;;;;4.25;91.04;100731.38;5046787;28;20098;-66
2022/02/04 17:17:51;;;;;;;2.35;1.77;;;;;;;4.23;91.86;100735.81;5059878;28;20044;-66
2022/02/04 17:20:17;;;;;;;2.10;1.52;;;;;;;4.31;91.48;100745.50;5058914;28;20136;-65
2022/02/04 17:22:43;;;;;;;2.28;1.58;;;;;;;4.23;91.71;100749.47;5061239;28;20045;-66
2022/02/04 17:25:11;;;;;;;2.88;1.70;;;;;;;4.19;91.31;100762.66;5061738;28;20053;-66
2022/02/04 17:27:38;;;;;;;2.75;1.75;;;;;;;4.14;91.13;100764.75;5044968;28;20139;-65
2022/02/04 17:30:08;;;;;;;2.67;1.90;;;;;;;4.16;90.59;100776.50;5044002;28;20044;-65
2022/02/04 17:32:34;;;;;;;2.80;2.40;;;;;;;4.15;91.06;100779.22;5067002;28;20426;-65
2022/02/04 17:35:00;;;;;;;7.53;2.75;;;;;;;4.14;90.99;100788.66;5047401;28;20135;-66
2022/02/04 17:37:26;;;;;;;5.03;3.13;;;;;;;4.21;91.79;100792.41;5045164;28;20314;-66
2022/02/04 17:39:54;;;;;;;5.32;3.25;;;;;;;4.17;91.85;100816.66;5048579;28;20032;-65
2022/02/04 17:42:23;;;;;;;5.20;3.45;;;;;;;4.14;92.16;100813.50;5060611;28;20036;-65
2022/02/04 17:44:50;;;;;;;5.25;3.78;;;;;;;4.26;91.48;100815.97;5066087;28;20036;-66
2022/02/04 17:47:16;;;;;;;8.57;4.65;;;;;;;4.19;91.87;100827.63;5064252;28;20052;-66
2022/02/04 17:49:52;;;;;;;6.43;4.82;;;;;;;4.17;92.02;100842.34;5038202;28;20145;-66
2022/02/04 17:52:25;;;;;;;7.13;4.80;;;;;;;4.09;92.79;100855.72;5059804;28;20036;-66
2022/02/04 17:55:06;;;;;;;7.30;5.13;;;;;;;4.16;93.35;100862.97;5076158;22;20984;-69
2022/02/04 18:08:09;;;;;;;8.32;2.95;;;;;;;3.75;91.62;100906.09;5061778;28;20025;-68
2022/02/04 18:10:35;;;;;;;7.30;3.53;;;;;;;3.76;92.12;100915.41;5050108;28;20442;-69
2022/02/04 18:13:03;;;;;;;5.38;2.88;;;;;;;3.73;91.17;100920.78;5046186;28;20551;-69